Time,TemperatureF,DewpointF,PressureIn,WindDirection,WindDirectionDegrees,WindSpeedMPH,WindSpeedGustMPH,Humidity,HourlyPrecipIn,Conditions,Clouds,dailyrainin,SoftwareType,DateUTC
2013-10-20 00:05:00,45.2,34.9,29.87,West,273,0.0,3.0,67,0.00,,---,0.00,VWS V14.01,2013-10-20 05:05:00,
2013-10-20 00:35:00,43.4,35.0,29.86,West,273,0.0,0.0,72,0.00,,---,0.00,VWS V14.01,2013-10-20 05:35:00,
2013-10-20 01:05:00,41.0,34.0,29.86,West,273,0.0,0.0,76,0.00,,---,0.00,VWS V14.01,2013-10-20 06:05:00,
2013-10-20 01:35:00,39.6,34.0,29.87,West,273,0.0,3.0,80,0.00,,---,0.00,VWS V14.01,2013-10-20 06:35:00,
2013-10-20 02:05:00,38.9,33.3,29.86,West,273,3.0,6.0,80,0.00,,---,0.00,VWS V14.01,2013-10-20 07:05:00,
2013-10-20 02:35:00,40.5,33.5,29.84,ESE,112,0.0,12.0,76,0.00,,---,0.00,VWS V14.01,2013-10-20 07:35:00,
2013-10-20 03:05:00,40.4,34.1,29.84,ESE,123,0.0,15.0,78,0.00,,---,0.00,VWS V14.01,2013-10-20 08:05:00,
2013-10-20 03:35:00,40.1,33.2,29.83,ESE,113,0.0,12.0,76,0.00,,---,0.00,VWS V14.01,2013-10-20 08:35:00,
2013-10-20 04:05:00,39.8,32.5,29.82,SE,127,6.0,15.0,75,0.00,,---,0.00,VWS V14.01,2013-10-20 09:05:00,
2013-10-20 04:35:00,40.0,32.7,29.80,SE,134,9.0,21.0,75,0.00,,---,0.00,VWS V14.01,2013-10-20 09:35:00,
2013-10-20 05:05:00,40.2,32.9,29.80,SE,130,9.0,21.0,75,0.00,,---,0.00,VWS V14.01,2013-10-20 10:05:00,
2013-10-20 05:35:00,40.3,33.0,29.79,SE,132,6.0,18.0,75,0.00,,---,0.00,VWS V14.01,2013-10-20 10:35:00,
2013-10-20 06:05:00,40.5,33.2,29.78,SE,132,12.0,24.0,75,0.00,,---,0.00,VWS V14.01,2013-10-20 11:05:00,
2013-10-20 06:35:00,40.6,34.0,29.77,SE,131,3.0,21.0,77,0.00,,---,0.00,VWS V14.01,2013-10-20 11:35:00,
2013-10-20 07:05:00,41.0,34.0,29.76,SE,132,9.0,18.0,76,0.00,,---,0.00,VWS V14.01,2013-10-20 12:05:00,
2013-10-20 07:35:00,41.1,34.1,29.75,SE,132,9.0,24.0,76,0.00,,---,0.00,VWS V14.01,2013-10-20 12:35:00,
2013-10-20 08:05:00,41.4,35.1,29.76,SE,129,0.0,15.0,78,0.00,,---,0.00,VWS V14.01,2013-10-20 13:05:00,
2013-10-20 08:35:00,42.1,36.1,29.75,ESE,123,6.0,15.0,79,0.00,,---,0.00,VWS V14.01,2013-10-20 13:35:00,
2013-10-20 09:35:00,45.1,39.0,29.75,SSW,200,3.0,15.0,79,0.00,,---,0.00,VWS V14.01,2013-10-20 14:35:00,
2013-10-20 10:05:00,45.4,39.3,29.75,SSW,193,9.0,18.0,79,0.00,,---,0.00,VWS V14.01,2013-10-20 15:05:00,
2013-10-20 10:35:00,47.2,40.7,29.75,South,171,0.0,9.0,78,0.00,,---,0.00,VWS V14.01,2013-10-20 15:35:00,
2013-10-20 11:05:00,49.6,42.0,29.75,South,175,6.0,15.0,75,0.00,,---,0.00,VWS V14.01,2013-10-20 16:05:00,
2013-10-20 11:35:00,51.8,43.1,29.75,WSW,238,0.0,18.0,72,0.00,,---,0.00,VWS V14.01,2013-10-20 16:35:00,
2013-10-20 12:05:00,53.6,43.3,29.75,SSE,162,0.0,15.0,68,0.00,,---,0.00,VWS V14.01,2013-10-20 17:05:00,
2013-10-20 12:35:00,55.7,43.7,29.74,SW,219,3.0,18.0,64,0.00,,---,0.00,VWS V14.01,2013-10-20 17:35:00,
2013-10-20 13:05:00,57.2,44.7,29.74,SE,136,0.0,18.0,63,0.00,,---,0.00,VWS V14.01,2013-10-20 18:05:00,
2013-10-20 13:35:00,58.7,45.3,29.75,WNW,294,9.0,15.0,61,0.00,,---,0.00,VWS V14.01,2013-10-20 18:35:00,
2013-10-20 14:05:00,59.2,45.3,29.74,NW,306,9.0,15.0,60,0.00,,---,0.00,VWS V14.01,2013-10-20 19:05:00,
2013-10-20 14:35:00,60.1,44.4,29.74,West,280,0.0,18.0,56,0.00,,---,0.00,VWS V14.01,2013-10-20 19:35:00,
2013-10-20 15:05:00,59.6,43.9,29.73,WNW,292,0.0,15.0,56,0.00,,---,0.00,VWS V14.01,2013-10-20 20:05:00,
2013-10-20 15:35:00,59.9,44.2,29.73,WSW,254,0.0,9.0,56,0.00,,---,0.00,VWS V14.01,2013-10-20 20:35:00,
2013-10-20 16:05:00,60.1,44.4,29.75,NW,309,3.0,15.0,56,0.00,,---,0.00,VWS V14.01,2013-10-20 21:05:00,
2013-10-20 16:35:00,60.0,43.8,29.76,SSW,198,6.0,21.0,55,0.00,,---,0.00,VWS V14.01,2013-10-20 21:35:00,
2013-10-20 17:05:00,60.0,42.3,29.77,WSW,258,9.0,21.0,52,0.00,,---,0.00,VWS V14.01,2013-10-20 22:05:00,
2013-10-20 17:35:00,59.5,42.4,29.77,West,263,0.0,15.0,53,0.00,,---,0.00,VWS V14.01,2013-10-20 22:35:00,
2013-10-20 18:05:00,59.2,41.6,29.79,NNW,339,3.0,33.0,52,0.00,,---,0.00,VWS V14.01,2013-10-20 23:05:00,
2013-10-20 18:35:00,58.0,41.0,29.80,NW,319,12.0,24.0,53,0.00,,---,0.00,VWS V14.01,2013-10-20 23:35:00,
2013-10-20 19:05:00,57.6,40.1,29.82,NW,309,3.0,21.0,52,0.00,,---,0.00,VWS V14.01,2013-10-21 00:05:00,
2013-10-20 19:35:00,56.0,39.6,29.83,NNW,336,3.0,24.0,54,0.00,,---,0.00,VWS V14.01,2013-10-21 00:35:00,
2013-10-20 20:05:00,54.3,39.8,29.85,WNW,302,0.0,27.0,58,0.00,,---,0.00,VWS V14.01,2013-10-21 01:05:00,
2013-10-20 20:35:00,52.6,40.4,29.86,NNE,20,12.0,24.0,63,0.00,,---,0.00,VWS V14.01,2013-10-21 01:35:00,
2013-10-20 21:05:00,51.3,40.3,29.87,NW,323,12.0,24.0,66,0.00,,---,0.00,VWS V14.01,2013-10-21 02:05:00,
2013-10-20 21:35:00,50.2,40.4,29.88,WNW,292,9.0,30.0,69,0.00,,---,0.00,VWS V14.01,2013-10-21 02:35:00,
2013-10-20 22:05:00,49.2,40.2,29.90,NW,325,12.0,33.0,71,0.00,,---,0.00,VWS V14.01,2013-10-21 03:05:00,
2013-10-20 22:35:00,48.4,40.2,29.91,North,350,6.0,27.0,73,0.00,,---,0.00,VWS V14.01,2013-10-21 03:35:00,
2013-10-20 23:05:00,47.4,39.5,29.92,NNW,331,6.0,33.0,74,0.00,,---,0.00,VWS V14.01,2013-10-21 04:05:00,
2013-10-20 23:35:00,45.8,37.7,29.94,North,5,9.0,30.0,73,0.00,,---,0.00,VWS V14.01,2013-10-21 04:35:00,